createdAt,value
2018-07-27T00:01:08.409Z,3.07
2018-07-27T00:03:43.516Z,3.23
2018-07-27T00:06:18.515Z,3.40
2018-07-27T00:08:53.565Z,3.40
2018-07-27T00:11:28.532Z,3.23
2018-07-27T00:14:03.481Z,3.20
2018-07-27T00:16:38.440Z,3.30
2018-07-27T00:19:13.536Z,3.80
2018-07-27T00:21:48.607Z,3.60
2018-07-27T00:24:23.600Z,3.50
2018-07-27T00:26:58.560Z,3.33
2018-07-27T00:29:33.516Z,3.60
2018-07-27T00:32:08.571Z,3.60
2018-07-27T00:34:43.581Z,4.57
2018-07-27T00:37:18.691Z,3.20
2018-07-27T00:39:53.647Z,3.33
2018-07-27T00:42:28.836Z,3.30
2018-07-27T00:45:04.420Z,3.20
2018-07-27T00:47:39.504Z,3.97
2018-07-27T00:50:14.553Z,3.17
2018-07-27T00:52:49.473Z,3.53
2018-07-27T00:55:24.592Z,3.47
2018-07-27T00:57:59.791Z,3.50
2018-07-27T01:00:34.848Z,3.70
2018-07-27T01:03:10.117Z,3.50
2018-07-27T01:05:45.332Z,3.47
2018-07-27T01:08:20.463Z,3.57
2018-07-27T01:10:55.499Z,3.20
2018-07-27T01:13:30.500Z,3.27
2018-07-27T01:16:05.283Z,3.80
2018-07-27T01:18:40.172Z,3.63
2018-07-27T01:21:15.433Z,3.70
2018-07-27T01:23:50.613Z,3.43
2018-07-27T01:26:25.688Z,3.30
2018-07-27T01:29:00.849Z,3.73
2018-07-27T01:31:35.953Z,4.30
2018-07-27T01:34:11.128Z,3.73
2018-07-27T01:36:46.263Z,3.70
2018-07-27T01:39:21.480Z,3.77
2018-07-27T01:41:57.387Z,3.80
2018-07-27T01:44:32.600Z,4.10
2018-07-27T01:47:07.647Z,3.70
2018-07-27T01:49:42.645Z,3.90
2018-07-27T01:52:17.659Z,4.53
2018-07-27T01:54:52.848Z,4.60
2018-07-27T01:57:27.868Z,4.80
2018-07-27T02:00:02.996Z,5.20
2018-07-27T02:02:38.031Z,4.13
2018-07-27T02:05:13.120Z,4.20
2018-07-27T02:07:48.299Z,4.20
2018-07-27T02:10:23.476Z,4.20
2018-07-27T02:12:58.552Z,3.77
2018-07-27T02:15:33.668Z,3.73
2018-07-27T02:18:08.680Z,3.73
2018-07-27T02:20:43.649Z,4.00
2018-07-27T02:23:19.192Z,3.83
2018-07-27T02:25:54.260Z,3.97
2018-07-27T02:28:29.304Z,3.67
2018-07-27T02:31:04.309Z,4.07
2018-07-27T02:33:39.496Z,3.50
2018-07-27T02:36:14.577Z,3.90
2018-07-27T02:38:49.783Z,3.83
2018-07-27T02:41:24.732Z,3.40
2018-07-27T02:43:59.749Z,3.80
2018-07-27T02:46:34.675Z,3.90
2018-07-27T02:49:09.692Z,3.80
2018-07-27T02:51:44.861Z,3.57
2018-07-27T02:54:20.004Z,4.20
2018-07-27T02:56:55.162Z,3.93
2018-07-27T02:59:30.088Z,3.73
2018-07-27T03:02:05.291Z,3.80
2018-07-27T03:04:40.554Z,3.80
2018-07-27T03:07:15.520Z,3.73
2018-07-27T03:09:50.514Z,4.13
2018-07-27T03:12:25.548Z,3.67
2018-07-27T03:15:00.521Z,3.83
2018-07-27T03:17:35.620Z,4.13
2018-07-27T03:20:10.607Z,4.40
2018-07-27T03:22:45.676Z,3.90
2018-07-27T03:25:20.880Z,3.80
2018-07-27T03:27:56.080Z,4.30
2018-07-27T03:30:31.155Z,3.87
2018-07-27T03:33:06.395Z,4.30
2018-07-27T03:35:41.356Z,4.13
2018-07-27T03:38:16.476Z,4.40
2018-07-27T03:40:51.416Z,4.00
2018-07-27T03:43:26.411Z,4.20
2018-07-27T03:46:01.500Z,4.43
2018-07-27T03:48:36.468Z,4.13
2018-07-27T03:51:11.437Z,4.30
2018-07-27T03:53:46.404Z,4.10
2018-07-27T03:56:21.491Z,4.53
2018-07-27T03:58:56.471Z,4.57
2018-07-27T04:01:31.441Z,4.20
2018-07-27T04:04:06.413Z,4.23
2018-07-27T04:06:41.461Z,4.43
2018-07-27T04:09:16.508Z,4.57
2018-07-27T04:11:51.564Z,4.53
2018-07-27T04:14:26.508Z,5.23
2018-07-27T04:20:08.359Z,5.07
2018-07-27T04:22:43.139Z,6.77
2018-07-27T04:25:18.156Z,6.10
2018-07-27T04:27:53.276Z,5.27
2018-07-27T04:30:28.261Z,6.67
2018-07-27T04:33:03.360Z,6.30
2018-07-27T04:35:38.551Z,6.10
2018-07-27T04:38:13.645Z,5.03
2018-07-27T04:40:48.641Z,4.80
2018-07-27T04:43:23.684Z,4.57
2018-07-27T04:45:58.784Z,4.90
2018-07-27T04:48:33.988Z,4.80
2018-07-27T04:51:09.347Z,4.80
2018-07-27T04:53:44.372Z,5.40
2018-07-27T04:56:19.346Z,4.50
2018-07-27T04:58:54.404Z,5.60
2018-07-27T05:01:29.456Z,4.30
2018-07-27T05:04:04.774Z,4.77
2018-07-27T05:06:39.745Z,4.67
2018-07-27T05:09:20.928Z,5.17
2018-07-27T05:11:55.983Z,4.37
2018-07-27T05:14:31.032Z,4.00
2018-07-27T05:17:06.156Z,4.43
2018-07-27T05:19:41.207Z,4.60
2018-07-27T05:22:16.224Z,4.80
2018-07-27T05:24:51.241Z,4.57
2018-07-27T05:27:26.075Z,4.83
2018-07-27T05:30:00.920Z,4.30
2018-07-27T05:32:36.043Z,4.50
2018-07-27T05:35:11.184Z,5.17
2018-07-27T05:37:47.048Z,4.70
2018-07-27T05:40:22.187Z,4.80
2018-07-27T05:42:57.256Z,4.87
2018-07-27T05:45:32.340Z,5.00
2018-07-27T05:48:07.293Z,5.00
2018-07-27T05:50:42.429Z,4.30
2018-07-27T05:53:17.524Z,4.67
2018-07-27T05:55:52.619Z,4.80
2018-07-27T05:58:27.860Z,4.87
2018-07-27T06:01:03.070Z,4.77
2018-07-27T06:03:38.136Z,4.80
2018-07-27T06:06:13.173Z,4.70
2018-07-27T06:08:48.255Z,4.80
2018-07-27T06:11:23.212Z,4.93
2018-07-27T06:13:58.179Z,4.67
2018-07-27T06:16:33.400Z,4.67
2018-07-27T06:19:08.388Z,5.00
2018-07-27T06:21:43.459Z,4.17
2018-07-27T06:24:18.662Z,4.87
2018-07-27T06:26:53.514Z,4.97
2018-07-27T06:29:28.585Z,5.00
2018-07-27T06:32:03.671Z,4.40
2018-07-27T06:34:38.621Z,5.50
2018-07-27T06:37:14.083Z,5.43
2018-07-27T06:39:49.004Z,5.00
2018-07-27T06:42:24.065Z,4.80
2018-07-27T06:44:59.288Z,5.07
2018-07-27T06:47:34.381Z,5.07
2018-07-27T06:50:09.464Z,4.50
2018-07-27T06:52:44.556Z,4.97
2018-07-27T06:55:19.524Z,5.23
2018-07-27T06:57:54.865Z,4.73
2018-07-27T07:00:29.864Z,5.53
2018-07-27T07:03:05.232Z,5.17
2018-07-27T07:05:40.480Z,4.93
2018-07-27T07:08:15.404Z,4.70
2018-07-27T07:10:50.532Z,4.63
2018-07-27T07:13:25.624Z,4.73
2018-07-27T07:16:00.872Z,5.43
2018-07-27T07:18:36.135Z,4.67
2018-07-27T07:21:11.117Z,4.93
2018-07-27T07:23:46.174Z,4.57
2018-07-27T07:26:21.324Z,4.80
2018-07-27T07:28:56.816Z,4.80
2018-07-27T07:31:31.876Z,4.63
2018-07-27T07:34:06.629Z,4.70
2018-07-27T07:36:41.621Z,4.40
2018-07-27T07:39:16.873Z,4.63
2018-07-27T07:41:51.988Z,4.90
2018-07-27T07:44:27.081Z,4.90
2018-07-27T07:47:02.280Z,5.00
2018-07-27T07:49:37.253Z,4.60
2018-07-27T07:52:12.732Z,5.03
2018-07-27T07:54:47.668Z,4.23
2018-07-27T07:57:22.755Z,4.87
2018-07-27T07:59:57.888Z,4.40
2018-07-27T08:02:32.828Z,4.37
2018-07-27T08:05:07.924Z,4.40
2018-07-27T08:07:42.940Z,4.40
2018-07-27T08:10:17.911Z,4.77
2018-07-27T08:12:52.870Z,3.87
2018-07-27T08:15:28.064Z,4.03
2018-07-27T08:18:03.120Z,4.23
2018-07-27T08:20:38.218Z,4.17
2018-07-27T08:23:13.244Z,5.00
2018-07-27T08:26:58.760Z,3.77
2018-07-27T08:29:36.067Z,3.73
2018-07-27T08:32:11.296Z,4.03
2018-07-27T08:34:46.435Z,3.50
2018-07-27T08:37:21.624Z,3.50
2018-07-27T08:39:56.704Z,4.10
2018-07-27T08:42:31.664Z,4.33
2018-07-27T08:45:06.628Z,3.70
2018-07-27T08:47:41.683Z,3.30
2018-07-27T08:50:16.852Z,3.40
2018-07-27T08:52:52.611Z,2.83
2018-07-27T08:55:27.656Z,4.00
2018-07-27T08:58:02.597Z,3.30
2018-07-27T09:00:48.990Z,6.15
2018-07-27T09:03:23.947Z,3.62
2018-07-27T09:05:59.116Z,3.25
2018-07-27T09:08:34.117Z,3.03
2018-07-27T09:11:09.188Z,3.35
2018-07-27T09:13:44.164Z,3.23
2018-07-27T09:16:19.676Z,3.03
2018-07-27T09:18:54.803Z,3.35
2018-07-27T09:21:29.980Z,3.22
2018-07-27T09:24:04.952Z,3.00
2018-07-27T09:26:39.966Z,3.47
2018-07-27T09:29:14.960Z,3.17
2018-07-27T09:31:50.092Z,2.92
2018-07-27T09:34:25.130Z,3.25
2018-07-27T09:37:00.045Z,3.12
2018-07-27T09:39:35.085Z,3.30
2018-07-27T09:42:10.060Z,2.95
2018-07-27T09:44:45.164Z,3.00
2018-07-27T09:47:20.088Z,2.52
2018-07-27T09:49:55.048Z,2.47
2018-07-27T09:52:30.076Z,3.60
2018-07-27T09:55:05.256Z,3.10
2018-07-27T09:57:40.277Z,2.70
2018-07-27T10:00:19.523Z,3.10
2018-07-27T10:02:54.524Z,2.60
2018-07-27T10:05:29.856Z,2.40
2018-07-27T10:08:04.871Z,3.02
2018-07-27T10:10:39.928Z,2.98
2018-07-27T10:13:15.068Z,2.67
2018-07-27T10:15:50.112Z,2.90
2018-07-27T10:18:25.091Z,3.33
2018-07-27T10:21:00.195Z,3.95
2018-07-27T10:23:35.236Z,3.72
2018-07-27T10:26:10.489Z,3.90
2018-07-27T10:28:45.436Z,3.45
2018-07-27T10:31:20.525Z,2.95
2018-07-27T10:33:55.460Z,3.45
2018-07-27T10:36:30.559Z,3.62
2018-07-27T10:39:08.232Z,3.30
2018-07-27T10:41:43.235Z,2.52
2018-07-27T10:44:18.435Z,3.47
2018-07-27T10:46:53.544Z,2.55
2018-07-27T10:49:28.637Z,3.50
2018-07-27T10:52:03.716Z,2.77
2018-07-27T10:54:38.964Z,3.02
2018-07-27T10:57:14.104Z,2.47
2018-07-27T10:59:49.102Z,3.37
2018-07-27T11:02:24.348Z,3.10
2018-07-27T11:04:59.261Z,3.30
2018-07-27T11:07:34.412Z,2.72
2018-07-27T11:10:10.235Z,3.10
2018-07-27T11:12:45.164Z,2.80
2018-07-27T11:15:20.379Z,2.90
2018-07-27T11:17:55.531Z,2.98
2018-07-27T11:20:30.480Z,2.77
2018-07-27T11:23:05.553Z,2.85
2018-07-27T11:25:40.818Z,2.87
2018-07-27T11:28:15.604Z,2.92
2018-07-27T11:30:50.619Z,3.52
2018-07-27T11:33:25.768Z,2.40
2018-07-27T11:36:00.888Z,2.62
2018-07-27T11:38:35.820Z,2.75
2018-07-27T11:41:10.808Z,2.65
2018-07-27T11:43:45.896Z,2.50
2018-07-27T11:46:20.892Z,2.60
2018-07-27T11:48:56.228Z,2.30
2018-07-27T11:51:31.019Z,2.65
2018-07-27T11:54:06.691Z,2.33
2018-07-27T11:56:41.789Z,2.80
2018-07-27T11:59:16.935Z,2.27
2018-07-27T12:01:52.125Z,2.60
2018-07-27T12:04:27.206Z,2.45
2018-07-27T12:07:02.423Z,2.45
2018-07-27T12:09:37.309Z,2.22
2018-07-27T12:12:12.400Z,2.70
2018-07-27T12:14:47.663Z,2.40
2018-07-27T12:17:23.612Z,2.75
2018-07-27T12:19:58.716Z,2.30
2018-07-27T12:22:33.784Z,2.27
2018-07-27T12:25:08.972Z,2.15
2018-07-27T12:27:43.995Z,2.27
2018-07-27T12:30:19.146Z,2.00
2018-07-27T12:32:54.404Z,2.40
2018-07-27T12:35:29.591Z,2.10
2018-07-27T12:38:04.747Z,2.20
2018-07-27T12:40:39.927Z,2.35
2018-07-27T12:43:15.884Z,2.08
2018-07-27T12:45:50.952Z,2.72
2018-07-27T12:48:25.928Z,2.92
2018-07-27T12:51:00.998Z,2.90
2018-07-27T12:53:37.605Z,3.10
2018-07-27T12:56:12.516Z,2.62
2018-07-27T12:58:47.752Z,2.77
2018-07-27T13:01:22.868Z,2.50
2018-07-27T13:03:58.017Z,2.72
2018-07-27T13:06:33.256Z,2.80
2018-07-27T13:09:09.919Z,2.77
2018-07-27T13:11:45.107Z,2.70
2018-07-27T13:14:20.244Z,2.77
2018-07-27T13:16:55.167Z,2.80
2018-07-27T13:19:30.318Z,2.42
2018-07-27T13:22:05.461Z,3.15
2018-07-27T13:27:15.489Z,2.83
2018-07-27T13:29:50.544Z,2.52
2018-07-27T13:32:25.676Z,3.00
2018-07-27T13:35:01.194Z,2.98
2018-07-27T13:37:36.972Z,2.85
2018-07-27T13:40:11.992Z,3.17
2018-07-27T13:42:47.110Z,2.80
2018-07-27T13:45:22.241Z,3.05
2018-07-27T13:47:57.180Z,2.77
2018-07-27T13:50:32.002Z,2.75
2018-07-27T13:53:07.308Z,3.02
2018-07-27T13:55:42.416Z,2.65
2018-07-27T13:58:17.578Z,2.87
2018-07-27T14:00:52.631Z,2.62
2018-07-27T14:03:27.699Z,2.90
2018-07-27T14:15:22.240Z,3.00
2018-07-27T14:17:57.128Z,2.87
2018-07-27T14:20:32.116Z,3.00
2018-07-27T14:23:07.180Z,2.80
2018-07-27T14:25:42.843Z,2.95
2018-07-27T14:28:17.804Z,2.72
2018-07-27T14:30:52.916Z,2.70
2018-07-27T14:33:28.032Z,2.58
2018-07-27T14:36:03.124Z,3.12
2018-07-27T14:38:38.340Z,2.90
2018-07-27T14:41:13.435Z,2.72
2018-07-27T14:43:48.388Z,3.00
2018-07-27T14:46:23.422Z,3.33
2018-07-27T14:48:58.568Z,2.90
2018-07-27T14:51:33.571Z,2.80
2018-07-27T14:54:09.885Z,2.90
2018-07-27T14:56:44.828Z,2.47
2018-07-27T14:59:19.920Z,3.02
2018-07-27T15:01:55.032Z,2.83
2018-07-27T15:04:30.056Z,2.62
2018-07-27T15:07:05.248Z,3.20
2018-07-27T15:09:40.363Z,3.20
2018-07-27T15:12:16.456Z,3.05
2018-07-27T15:14:51.452Z,2.72
2018-07-27T15:17:26.560Z,2.98
2018-07-27T15:20:01.669Z,3.12
2018-07-27T15:22:36.768Z,3.20
2018-07-27T15:25:12.008Z,3.77
2018-07-27T15:27:47.266Z,2.80
2018-07-27T15:30:22.520Z,3.25
2018-07-27T15:32:57.711Z,3.05
2018-07-27T15:35:32.856Z,3.42
2018-07-27T15:38:07.988Z,3.62
2018-07-27T15:40:43.099Z,3.52
2018-07-27T15:43:18.263Z,3.42
2018-07-27T15:45:53.343Z,3.02
2018-07-27T15:48:28.618Z,3.92
2018-07-27T15:51:03.564Z,3.80
2018-07-27T15:53:38.631Z,3.58
2018-07-27T15:56:13.573Z,3.70
2018-07-27T15:58:48.669Z,3.95
2018-07-27T16:01:23.632Z,3.30
2018-07-27T16:03:58.764Z,3.27
2018-07-27T16:06:33.755Z,3.98
2018-07-27T16:09:09.604Z,3.67
2018-07-27T16:11:44.692Z,4.00
2018-07-27T16:14:19.648Z,3.50
2018-07-27T16:16:55.232Z,4.35
2018-07-27T16:19:31.753Z,3.90
2018-07-27T16:22:06.975Z,4.17
2018-07-27T16:24:42.067Z,4.05
2018-07-27T16:27:17.032Z,4.12
2018-07-27T16:29:52.128Z,4.40
2018-07-27T16:32:27.196Z,4.33
2018-07-27T16:35:02.253Z,4.00
2018-07-27T16:37:37.395Z,3.90
2018-07-27T16:40:12.647Z,3.92
2018-07-27T16:42:47.700Z,3.95
2018-07-27T16:45:22.774Z,3.90
2018-07-27T16:47:57.896Z,4.97
2018-07-27T16:50:33.144Z,4.20
2018-07-27T16:53:08.097Z,3.83
2018-07-27T16:55:43.189Z,4.12
2018-07-27T16:58:18.855Z,4.20
2018-07-27T17:00:53.932Z,3.83
2018-07-27T17:03:29.522Z,4.25
2018-07-27T17:06:04.771Z,4.10
2018-07-27T17:08:39.693Z,3.92
2018-07-27T17:11:14.595Z,3.60
2018-07-27T17:13:49.524Z,3.98
2018-07-27T17:16:24.496Z,4.05
2018-07-27T17:18:59.585Z,4.12
2018-07-27T17:21:34.815Z,3.62
2018-07-27T17:24:09.798Z,4.00
2018-07-27T17:26:44.760Z,3.90
2018-07-27T17:29:19.596Z,4.33
2018-07-27T17:31:54.426Z,4.12
2018-07-27T17:34:29.466Z,4.40
2018-07-27T17:37:04.696Z,3.90
2018-07-27T17:39:39.628Z,4.42
2018-07-27T17:42:14.764Z,4.22
2018-07-27T17:44:49.980Z,4.45
2018-07-27T17:47:25.247Z,4.03
2018-07-27T17:50:00.180Z,4.45
2018-07-27T17:52:35.118Z,4.12
2018-07-27T17:55:10.294Z,4.10
2018-07-27T17:57:45.233Z,4.17
2018-07-27T18:00:20.328Z,4.60
2018-07-27T18:02:55.447Z,3.90
2018-07-27T18:05:30.612Z,4.10
2018-07-27T18:08:05.943Z,3.67
2018-07-27T18:10:40.900Z,3.98
2018-07-27T18:13:16.076Z,3.67
2018-07-27T18:15:51.063Z,4.05
2018-07-27T18:18:26.228Z,3.80
2018-07-27T18:21:01.411Z,3.83
2018-07-27T18:23:36.874Z,4.28
2018-07-27T18:26:11.916Z,3.72
2018-07-27T18:28:47.052Z,4.17
2018-07-27T18:31:22.160Z,4.03
2018-07-27T18:33:57.331Z,4.20
2018-07-27T18:36:32.500Z,4.42
2018-07-27T18:39:09.427Z,4.03
2018-07-27T18:41:44.466Z,4.12
2018-07-27T18:44:19.455Z,4.30
2018-07-27T18:46:54.548Z,3.80
2018-07-27T18:49:29.703Z,4.35
2018-07-27T18:52:04.744Z,4.35
2018-07-27T18:54:39.816Z,4.12
2018-07-27T18:57:14.752Z,3.90
2018-07-27T18:59:49.879Z,4.53
2018-07-27T19:02:25.047Z,3.92
2018-07-27T19:05:00.195Z,4.37
2018-07-27T19:07:35.311Z,4.50
2018-07-27T19:10:10.366Z,4.40
2018-07-27T19:12:45.472Z,4.42
2018-07-27T19:15:20.716Z,4.35
2018-07-27T19:17:55.776Z,4.85
2018-07-27T19:20:30.899Z,4.67
2018-07-27T19:23:05.800Z,4.62
2018-07-27T19:25:41.392Z,5.28
2018-07-27T19:28:16.520Z,4.37
2018-07-27T19:30:51.642Z,4.33
2018-07-27T19:33:26.608Z,4.85
2018-07-27T19:36:01.725Z,4.97
2018-07-27T19:38:36.942Z,4.67
2018-07-27T19:41:11.874Z,4.20
2018-07-27T19:43:46.978Z,4.33
2018-07-27T19:46:22.168Z,5.58
2018-07-27T19:48:57.157Z,4.20
2018-07-27T19:51:32.262Z,5.00
2018-07-27T19:54:07.196Z,4.55
2018-07-27T19:56:42.188Z,4.97
2018-07-27T19:59:17.282Z,5.05
2018-07-27T20:01:52.265Z,5.40
2018-07-27T20:04:27.364Z,5.47
2018-07-27T20:07:02.464Z,5.03
2018-07-27T20:09:37.619Z,5.43
2018-07-27T20:12:12.627Z,5.33
2018-07-27T20:14:47.768Z,5.70
2018-07-27T20:17:22.944Z,5.50
2018-07-27T20:19:57.861Z,5.17
2018-07-27T20:22:33.164Z,5.20
2018-07-27T20:25:08.424Z,5.30
2018-07-27T20:27:43.580Z,6.60
2018-07-27T20:30:18.740Z,5.20
2018-07-27T20:32:53.856Z,5.20
2018-07-27T20:35:28.968Z,5.27
2018-07-27T20:38:04.376Z,5.60
2018-07-27T20:40:39.456Z,5.90
2018-07-27T20:43:14.564Z,5.45
2018-07-27T20:45:49.508Z,5.57
2018-07-27T20:48:24.733Z,5.73
2018-07-27T20:50:59.871Z,5.97
2018-07-27T20:53:34.714Z,5.97
2018-07-27T20:56:09.648Z,6.17
2018-07-27T20:58:44.695Z,5.90
2018-07-27T21:01:19.884Z,5.90
2018-07-27T21:03:54.982Z,6.07
2018-07-27T21:06:30.085Z,6.00
2018-07-27T21:09:07.240Z,6.00
2018-07-27T21:11:42.623Z,6.43
2018-07-27T21:14:17.677Z,6.00
2018-07-27T21:16:52.760Z,6.10
2018-07-27T21:19:27.744Z,5.70
2018-07-27T21:22:02.812Z,6.27
2018-07-27T21:24:37.934Z,6.40
2018-07-27T21:27:13.009Z,5.27
2018-07-27T21:29:48.144Z,6.17
2018-07-27T21:32:23.202Z,5.72
2018-07-27T21:34:58.389Z,5.67
2018-07-27T21:37:33.400Z,5.50
2018-07-27T21:40:08.533Z,5.93
2018-07-27T21:42:43.599Z,5.57
2018-07-27T21:45:18.648Z,5.80
2018-07-27T21:47:53.629Z,5.47
2018-07-27T21:50:28.636Z,5.33
2018-07-27T21:53:03.612Z,5.95
2018-07-27T21:55:38.703Z,5.12
2018-07-27T21:58:13.921Z,5.22
2018-07-27T22:00:49.147Z,5.20
2018-07-27T22:03:24.152Z,5.65
2018-07-27T22:05:59.171Z,5.45
2018-07-27T22:08:34.276Z,5.62
2018-07-27T22:11:10.180Z,5.93
2018-07-27T22:13:45.879Z,4.60
2018-07-27T22:16:20.928Z,5.33
2018-07-27T22:18:55.888Z,5.37
2018-07-27T22:21:30.945Z,4.95
2018-07-27T22:24:06.033Z,5.00
2018-07-27T22:26:41.100Z,4.67
2018-07-27T22:29:16.068Z,4.90
2018-07-27T22:31:51.139Z,5.17
2018-07-27T22:34:26.255Z,5.00
2018-07-27T22:37:01.355Z,4.90
2018-07-27T22:39:36.328Z,5.00
2018-07-27T22:42:11.287Z,4.70
2018-07-27T22:44:46.259Z,4.85
2018-07-27T22:47:21.344Z,5.08
2018-07-27T22:49:56.488Z,4.47
2018-07-27T22:52:36.543Z,5.17
2018-07-27T22:55:12.623Z,5.37
2018-07-27T22:57:47.704Z,4.67
2018-07-27T23:00:22.916Z,5.28
2018-07-27T23:02:57.960Z,4.60
2018-07-27T23:05:33.104Z,4.22
2018-07-27T23:08:08.501Z,5.28
2018-07-27T23:10:43.244Z,4.87
2018-07-27T23:13:18.260Z,4.97
2018-07-27T23:15:53.331Z,4.23
2018-07-27T23:18:28.336Z,4.57
2018-07-27T23:21:03.496Z,4.93
2018-07-27T23:23:38.432Z,4.80
2018-07-27T23:26:13.360Z,4.30
2018-07-27T23:28:48.476Z,5.17
2018-07-27T23:31:23.648Z,4.37
2018-07-27T23:33:58.780Z,4.73
2018-07-27T23:36:33.720Z,4.63
2018-07-27T23:39:10.786Z,4.90
2018-07-27T23:41:45.931Z,4.87
2018-07-27T23:44:21.044Z,4.90
2018-07-27T23:46:55.967Z,4.97
2018-07-27T23:49:31.104Z,4.57
2018-07-27T23:52:06.219Z,5.10
2018-07-27T23:54:41.352Z,5.60
2018-07-27T23:57:16.487Z,4.43
2018-07-27T23:59:51.878Z,4.93
